TimeMST,TemperatureF,Dew PointF,Humidity,Sea Level PressureIn,VisibilityMPH,Wind Direction,Wind SpeedMPH,Gust SpeedMPH,PrecipitationIn,Events,Conditions,WindDirDegrees,DateUTC
12:53 AM,10.9,3.9,73,30.09,10.0,North,4.6,-,N/A,,Clear,360,2012-12-11 07:53:00
1:53 AM,12.9,3.9,67,30.08,10.0,ENE,6.9,-,N/A,,Clear,60,2012-12-11 08:53:00
2:53 AM,8.1,1.9,76,30.11,10.0,North,4.6,-,N/A,,Clear,360,2012-12-11 09:53:00
3:53 AM,12.0,3.9,70,30.09,10.0,Calm,Calm,-,N/A,,Clear,0,2012-12-11 10:53:00
4:53 AM,10.0,1.9,70,30.12,10.0,North,3.5,-,N/A,,Clear,10,2012-12-11 11:53:00
5:53 AM,7.0,1.0,77,30.17,10.0,Variable,3.5,-,N/A,,Clear,0,2012-12-11 12:53:00
6:53 AM,8.1,1.0,73,30.19,10.0,North,8.1,-,N/A,,Clear,360,2012-12-11 13:53:00
7:53 AM,12.9,3.0,65,30.19,10.0,North,10.4,-,N/A,,Clear,360,2012-12-11 14:53:00
8:53 AM,17.1,7.0,65,30.21,10.0,North,11.5,-,N/A,,Clear,350,2012-12-11 15:53:00
9:53 AM,21.9,10.0,60,30.21,10.0,North,6.9,-,N/A,,Clear,360,2012-12-11 16:53:00
10:53 AM,26.1,12.0,55,30.19,10.0,NNE,9.2,-,N/A,,Clear,20,2012-12-11 17:53:00
11:53 AM,28.0,12.0,51,30.17,10.0,Calm,Calm,-,N/A,,Clear,0,2012-12-11 18:53:00
12:53 PM,30.9,12.9,47,30.13,10.0,Calm,Calm,-,N/A,,Clear,0,2012-12-11 19:53:00
1:53 PM,33.1,8.1,35,30.10,10.0,Calm,Calm,-,N/A,,Clear,0,2012-12-11 20:53:00
2:53 PM,34.0,8.1,34,30.11,10.0,ENE,3.5,-,N/A,,Clear,60,2012-12-11 21:53:00
3:53 PM,33.1,10.9,40,30.10,10.0,NE,8.1,-,N/A,,Clear,40,2012-12-11 22:53:00
4:53 PM,28.0,10.9,49,30.14,10.0,NE,5.8,-,N/A,,Clear,40,2012-12-11 23:53:00
5:53 PM,24.1,10.9,57,30.18,10.0,North,5.8,-,N/A,,Clear,360,2012-12-12 00:53:00
6:53 PM,19.9,10.0,65,30.21,10.0,North,6.9,-,N/A,,Clear,10,2012-12-12 01:53:00
7:53 PM,19.0,9.0,65,30.19,10.0,North,8.1,-,N/A,,Clear,10,2012-12-12 02:53:00
8:53 PM,19.0,9.0,65,30.19,10.0,NNE,8.1,-,N/A,,Clear,20,2012-12-12 03:53:00
9:53 PM,17.1,7.0,65,30.16,10.0,NNE,10.4,-,N/A,,Clear,20,2012-12-12 04:53:00
10:53 PM,17.1,7.0,65,30.15,10.0,North,10.4,-,N/A,,Clear,10,2012-12-12 05:53:00
11:53 PM,17.1,7.0,65,30.14,10.0,NNE,10.4,-,N/A,,Clear,20,2012-12-12 06:53:00